Time;durP1;ratioP1;P1;durP2;ratioP2;P2;SDS_P1;SDS_P2;PMS_P1;PMS_P2;Temp;Humidity;BMP_temperature;BMP_pressure;BME280_temperature;BME280_humidity;BME280_pressure;Samples;Min_cycle;Max_cycle;Signal;HPM_P1;HPM_P2
2023/07/04 00:00:16;;;;;;;6.53;1.90;;;;;;;23.44;42.14;101045.00;5012221;28;20036;-68
2023/07/04 00:02:41;;;;;;;6.43;1.95;;;;;;;23.46;42.15;101044.84;5016932;28;20393;-68
2023/07/04 00:05:07;;;;;;;6.63;2.13;;;;;;;23.46;42.60;101044.84;5006397;28;20022;-69
2023/07/04 00:07:32;;;;;;;7.20;2.20;;;;;;;23.44;42.28;101039.66;5012545;28;20037;-68
2023/07/04 00:10:03;;;;;;;6.90;2.10;;;;;;;23.45;42.66;101038.69;5009107;28;20080;-69
2023/07/04 00:12:31;;;;;;;7.47;2.05;;;;;;;23.44;42.27;101042.34;5007278;28;20064;-70
2023/07/04 00:14:56;;;;;;;7.28;2.10;;;;;;;23.42;42.42;101041.66;5013934;28;20045;-68
2023/07/04 00:17:21;;;;;;;6.05;1.95;;;;;;;23.44;42.11;101036.19;5010215;28;20091;-69
2023/07/04 00:19:48;;;;;;;6.07;1.73;;;;;;;23.41;42.60;101032.00;5009710;28;20034;-68
2023/07/04 00:22:13;;;;;;;4.70;1.95;;;;;;;23.41;42.37;101028.53;5011556;28;20029;-70
2023/07/04 00:24:40;;;;;;;9.43;2.03;;;;;;;23.41;42.54;101039.97;5010052;28;20299;-68
2023/07/04 00:27:05;;;;;;;5.57;2.20;;;;;;;23.43;42.15;101038.03;5009087;28;20025;-68
2023/07/04 00:29:31;;;;;;;6.22;2.17;;;;;;;23.42;42.25;101033.69;5008383;28;20044;-71
2023/07/04 00:31:58;;;;;;;6.22;2.05;;;;;;;23.42;42.55;101036.34;5011612;28;20481;-69
2023/07/04 00:34:23;;;;;;;7.90;2.47;;;;;;;23.42;42.28;101038.19;5013366;28;20501;-71
2023/07/04 00:36:49;;;;;;;5.70;2.00;;;;;;;23.42;42.10;101032.84;5011005;28;20113;-68
2023/07/04 00:39:14;;;;;;;5.47;1.80;;;;;;;23.40;42.51;101034.81;5012060;28;20125;-70
2023/07/04 00:41:41;;;;;;;4.30;1.65;;;;;;;23.41;42.31;101033.84;5015674;28;20039;-72
2023/07/04 00:44:20;;;;;;;6.97;1.98;;;;;;;23.39;42.71;101033.16;5013742;28;20037;-68
2023/07/04 00:47:06;;;;;;;6.95;2.10;;;;;;;23.41;42.32;101039.97;5006821;28;20048;-72
2023/07/04 00:49:43;;;;;;;5.22;1.95;;;;;;;23.41;42.24;101042.63;5014479;28;20124;-69
2023/07/04 00:52:23;;;;;;;6.93;2.08;;;;;;;23.41;42.16;101039.97;5006579;28;20486;-72
2023/07/04 00:54:52;;;;;;;6.53;2.17;;;;;;;23.40;42.55;101040.13;5014726;28;20040;-69
2023/07/04 00:57:19;;;;;;;7.75;2.30;;;;;;;23.38;42.49;101034.97;5011973;28;20026;-68
2023/07/04 00:59:47;;;;;;;7.22;1.85;;;;;;;23.39;42.18;101039.31;5005396;28;20034;-68
2023/07/04 01:02:16;;;;;;;5.72;1.70;;;;;;;23.37;42.58;101033.31;5003171;28;20091;-69
2023/07/04 01:04:43;;;;;;;8.85;2.55;;;;;;;23.39;42.45;101044.63;5006712;28;20466;-70
2023/07/04 01:07:24;;;;;;;6.40;1.88;;;;;;;23.34;42.22;101047.75;5013662;28;20065;-70
2023/07/04 01:09:56;;;;;;;6.43;2.10;;;;;;;23.36;42.37;101040.44;5001152;28;20026;-69
2023/07/04 01:12:29;;;;;;;6.68;2.25;;;;;;;23.35;42.48;101041.44;5006005;28;20470;-69
2023/07/04 01:14:55;;;;;;;7.07;2.13;;;;;;;23.36;42.39;101043.09;5000915;28;20095;-70
2023/07/04 01:17:20;;;;;;;7.15;2.22;;;;;;;23.36;42.75;101043.09;5000557;28;20042;-70
2023/07/04 01:19:46;;;;;;;5.77;2.00;;;;;;;23.35;42.63;101037.94;5010159;28;20034;-68
2023/07/04 01:22:15;;;;;;;7.68;2.13;;;;;;;23.35;42.57;101051.22;5020733;28;20271;-69
2023/07/04 01:24:49;;;;;;;4.93;1.95;;;;;;;23.37;42.71;101049.28;5011638;28;20049;-70
2023/07/04 01:27:15;;;;;;;6.45;2.00;;;;;;;23.35;42.60;101049.44;5014374;28;20045;-68
2023/07/04 01:29:41;;;;;;;7.75;2.45;;;;;;;23.36;42.73;101052.91;5016816;28;20029;-69
2023/07/04 01:32:08;;;;;;;5.22;2.15;;;;;;;23.33;42.42;101038.09;5013835;28;20029;-68
2023/07/04 01:34:33;;;;;;;6.15;2.20;;;;;;;23.26;42.36;101031.75;5024153;28;20033;-68
2023/07/04 01:37:00;;;;;;;7.05;2.03;;;;;;;23.34;42.38;101052.25;5023484;28;20087;-68
2023/07/04 01:39:25;;;;;;;7.70;2.30;;;;;;;23.36;42.58;101045.75;5019655;28;20051;-69
2023/07/04 01:41:51;;;;;;;7.90;2.65;;;;;;;23.36;42.51;101047.59;5016701;28;20462;-68
2023/07/04 01:44:17;;;;;;;6.55;2.20;;;;;;;23.31;42.62;101045.41;5004173;28;20100;-72
2023/07/04 01:46:42;;;;;;;7.50;2.28;;;;;;;23.33;42.40;101048.72;5004222;28;20113;-70
2023/07/04 01:49:09;;;;;;;5.68;2.08;;;;;;;23.35;42.54;101053.88;5003881;28;20458;-68
2023/07/04 01:51:39;;;;;;;5.45;2.20;;;;;;;23.32;42.47;101048.88;5010189;28;20033;-68
2023/07/04 01:54:06;;;;;;;7.03;1.98;;;;;;;23.32;42.87;101043.56;5018875;28;20059;-68
2023/07/04 01:56:33;;;;;;;7.40;2.38;;;;;;;23.34;42.73;101049.59;5013172;28;20056;-68
2023/07/04 01:58:59;;;;;;;8.73;2.30;;;;;;;23.31;42.29;101048.06;5016776;28;20034;-69
2023/07/04 02:01:24;;;;;;;8.10;2.15;;;;;;;23.33;42.45;101056.72;5003887;28;20057;-72
2023/07/04 02:03:50;;;;;;;7.47;2.45;;;;;;;23.34;42.91;101054.91;5009661;28;20064;-70
2023/07/04 02:06:16;;;;;;;6.13;2.20;;;;;;;23.34;42.86;101049.59;5003849;28;20045;-69
2023/07/04 02:08:42;;;;;;;7.97;2.33;;;;;;;23.32;42.53;101043.56;5009490;28;20033;-72
2023/07/04 02:11:07;;;;;;;8.32;2.20;;;;;;;23.31;42.89;101042.75;5007493;28;20049;-71
2023/07/04 02:13:32;;;;;;;7.03;1.95;;;;;;;23.30;42.68;101040.22;5003671;28;20478;-71
2023/07/04 02:15:58;;;;;;;6.13;2.05;;;;;;;23.30;42.82;101038.41;5015402;28;20803;-67
2023/07/04 02:18:25;;;;;;;6.72;2.20;;;;;;;23.31;42.66;101037.41;5005992;28;20040;-67
2023/07/04 02:20:50;;;;;;;7.07;2.00;;;;;;;23.31;42.55;101033.94;5005805;28;20117;-69
2023/07/04 02:23:15;;;;;;;7.35;2.22;;;;;;;23.32;42.97;101040.91;5023190;28;20120;-69
2023/07/04 02:25:41;;;;;;;6.35;2.00;;;;;;;23.30;42.66;101030.41;5022948;28;20392;-69
2023/07/04 02:28:07;;;;;;;7.90;2.30;;;;;;;23.32;42.60;101043.56;5011261;28;20045;-68
2023/07/04 02:30:32;;;;;;;6.22;2.55;;;;;;;23.28;42.70;101037.72;5019405;28;20037;-68
2023/07/04 02:32:58;;;;;;;8.18;2.63;;;;;;;23.28;43.02;101036.91;5015448;28;20042;-67
2023/07/04 02:35:23;;;;;;;7.00;2.58;;;;;;;23.30;42.95;101035.75;5003498;28;20505;-68
2023/07/04 02:37:48;;;;;;;9.18;2.60;;;;;;;23.27;42.88;101041.38;5013499;28;20044;-72
2023/07/04 02:40:14;;;;;;;7.38;2.22;;;;;;;23.29;43.12;101036.75;5018080;28;20033;-68
2023/07/04 02:42:39;;;;;;;6.40;2.40;;;;;;;23.30;43.07;101048.22;5003212;28;20053;-68
2023/07/04 02:45:06;;;;;;;7.50;2.30;;;;;;;23.27;43.21;101046.69;5007613;28;20037;-68
2023/07/04 02:47:32;;;;;;;8.07;2.58;;;;;;;23.26;42.65;101042.38;5019197;28;20466;-68
2023/07/04 02:49:57;;;;;;;7.25;2.30;;;;;;;23.28;42.66;101040.38;5021600;28;20037;-70
2023/07/04 02:52:25;;;;;;;7.20;2.42;;;;;;;23.27;42.82;101053.84;5017028;28;20037;-72
2023/07/04 02:54:50;;;;;;;6.65;2.35;;;;;;;23.26;42.81;101033.56;5010955;28;20087;-71
2023/07/04 02:57:16;;;;;;;8.30;2.70;;;;;;;23.27;42.90;101037.88;5007257;28;20037;-68
2023/07/04 02:59:41;;;;;;;7.40;2.70;;;;;;;23.27;43.14;101036.03;5022467;28;20045;-72
2023/07/04 03:02:07;;;;;;;9.40;2.58;;;;;;;23.26;43.52;101036.22;5010728;28;20095;-67
2023/07/04 03:04:32;;;;;;;6.77;2.00;;;;;;;23.26;43.29;101036.22;5008193;28;20319;-69
2023/07/04 03:06:57;;;;;;;6.72;1.85;;;;;;;23.26;43.52;101038.88;5009152;28;20271;-69
2023/07/04 03:09:23;;;;;;;6.78;2.17;;;;;;;23.28;43.25;101052.84;5004603;28;20072;-69
2023/07/04 03:11:48;;;;;;;6.30;2.00;;;;;;;23.28;43.55;101055.50;5005300;28;20124;-67
2023/07/04 03:14:14;;;;;;;7.00;2.33;;;;;;;23.26;43.40;101050.34;5020236;28;20547;-69
2023/07/04 03:16:39;;;;;;;7.82;2.50;;;;;;;23.25;43.66;101051.31;5018968;28;20060;-70
2023/07/04 03:19:04;;;;;;;7.40;2.30;;;;;;;23.27;43.38;101054.66;5019037;28;20037;-68
2023/07/04 03:21:30;;;;;;;7.53;2.20;;;;;;;23.25;43.74;101056.66;5016938;28;20039;-67
2023/07/04 03:23:55;;;;;;;6.25;1.88;;;;;;;23.26;43.66;101055.66;5002742;28;20030;-70
2023/07/04 03:26:20;;;;;;;6.85;2.45;;;;;;;23.27;43.91;101059.97;5015839;28;20041;-69
2023/07/04 03:28:46;;;;;;;8.02;2.17;;;;;;;23.25;43.94;101053.16;5013141;28;20422;-69
2023/07/04 03:31:11;;;;;;;9.57;2.47;;;;;;;23.23;43.64;101049.81;5011872;28;20029;-71
2023/07/04 03:33:36;;;;;;;8.27;2.25;;;;;;;23.26;43.93;101057.50;5004904;28;20033;-69
2023/07/04 03:36:02;;;;;;;6.82;2.28;;;;;;;23.24;43.83;101060.31;5020498;28;20029;-71
2023/07/04 03:38:27;;;;;;;7.10;1.92;;;;;;;23.26;43.76;101062.81;5003866;28;20025;-70
2023/07/04 03:40:53;;;;;;;7.18;2.35;;;;;;;23.23;44.12;101058.63;5015216;28;20394;-72
2023/07/04 03:43:18;;;;;;;6.43;2.20;;;;;;;23.23;43.75;101055.97;5009719;28;20034;-70
2023/07/04 03:45:46;;;;;;;8.77;1.90;;;;;;;23.22;44.10;101054.28;5005907;28;20861;-70
2023/07/04 03:48:12;;;;;;;6.82;2.42;;;;;;;23.22;44.22;101056.13;5021648;28;20454;-68
2023/07/04 03:50:38;;;;;;;5.72;2.17;;;;;;;23.23;44.31;101063.94;5017573;28;20065;-69
2023/07/04 03:53:03;;;;;;;5.45;1.92;;;;;;;23.23;44.08;101063.94;5001840;28;20351;-70
2023/07/04 03:55:29;;;;;;;7.13;2.13;;;;;;;23.22;44.17;101058.78;5021040;28;20454;-71
2023/07/04 03:57:54;;;;;;;7.28;2.15;;;;;;;23.24;44.11;101059.44;5020197;28;20029;-69
2023/07/04 04:00:19;;;;;;;6.13;2.30;;;;;;;23.24;43.96;101056.78;5021194;28;20087;-69
2023/07/04 04:02:45;;;;;;;6.97;2.05;;;;;;;23.23;44.28;101061.28;5021687;28;20033;-69
2023/07/04 04:05:12;;;;;;;4.03;1.80;;;;;;;23.23;44.26;101061.28;5007889;28;20029;-71
2023/07/04 04:07:37;;;;;;;7.88;2.30;;;;;;;23.21;44.29;101070.38;5017884;28;20307;-69
2023/07/04 04:10:02;;;;;;;8.30;2.65;;;;;;;23.21;44.20;101073.91;5009660;28;20513;-72
2023/07/04 04:12:28;;;;;;;6.82;2.28;;;;;;;23.21;44.11;101068.59;5004569;28;20433;-67
2023/07/04 04:14:53;;;;;;;8.07;2.20;;;;;;;23.20;44.08;101060.78;5018437;28;20038;-68
2023/07/04 04:17:19;;;;;;;8.18;2.60;;;;;;;23.19;44.24;101065.22;5004146;28;20056;-69
2023/07/04 04:19:44;;;;;;;8.40;2.38;;;;;;;23.22;44.42;101066.75;5010828;28;20437;-68
2023/07/04 04:22:09;;;;;;;6.38;2.45;;;;;;;23.21;43.91;101068.59;5016550;28;20858;-70
2023/07/04 04:24:36;;;;;;;7.00;2.38;;;;;;;23.18;44.04;101069.72;5021378;28;20543;-69
2023/07/04 04:27:03;;;;;;;6.50;2.30;;;;;;;23.18;44.08;101069.72;5016368;28;20069;-70
2023/07/04 04:29:28;;;;;;;8.07;2.53;;;;;;;23.20;44.08;101072.22;5012477;28;20464;-73
2023/07/04 04:31:55;;;;;;;6.13;2.08;;;;;;;23.21;44.42;101073.91;5020725;28;20030;-69
2023/07/04 04:34:22;;;;;;;5.95;1.90;;;;;;;23.19;43.90;101075.88;5019227;28;20166;-68
2023/07/04 04:36:48;;;;;;;8.75;2.28;;;;;;;23.17;44.29;101078.66;5021123;28;20037;-69
2023/07/04 04:39:13;;;;;;;7.82;2.40;;;;;;;23.18;43.95;101077.69;5012432;28;20026;-69
2023/07/04 04:41:40;;;;;;;7.78;2.40;;;;;;;23.18;44.41;101084.84;5010465;28;20037;-70
2023/07/04 04:44:05;;;;;;;5.47;1.98;;;;;;;23.18;44.15;101084.84;5011688;28;20030;-68
2023/07/04 04:46:32;;;;;;;9.30;2.33;;;;;;;23.20;44.37;101095.34;5001337;28;20562;-69
2023/07/04 04:48:58;;;;;;;7.13;2.30;;;;;;;23.17;44.26;101089.31;5003317;28;20482;-69
2023/07/04 04:51:24;;;;;;;5.97;2.20;;;;;;;23.17;44.43;101083.16;5018296;28;20029;-71
2023/07/04 04:53:50;;;;;;;7.93;2.42;;;;;;;23.18;44.38;101087.50;5006481;28;20117;-67
2023/07/04 04:56:15;;;;;;;7.65;2.40;;;;;;;23.13;44.60;101072.00;5016303;28;20236;-67
2023/07/04 04:58:43;;;;;;;6.63;2.35;;;;;;;23.17;44.67;101083.16;5021655;28;20026;-68
2023/07/04 05:01:19;;;;;;;7.65;2.40;;;;;;;23.15;44.57;101093.94;5017130;28;20029;-68
2023/07/04 05:03:45;;;;;;;6.90;2.50;;;;;;;23.17;44.37;101097.28;5010036;28;20033;-68
2023/07/04 05:06:11;;;;;;;7.47;2.42;;;;;;;23.17;44.58;101099.13;5020665;28;20033;-69
2023/07/04 05:08:36;;;;;;;6.70;2.30;;;;;;;23.16;44.52;101098.28;5006294;28;20037;-68
2023/07/04 05:11:06;;;;;;;6.65;2.63;;;;;;;23.17;44.78;101102.59;5005360;28;20044;-70
2023/07/04 05:13:33;;;;;;;9.95;2.60;;;;;;;23.17;44.56;101107.09;5020211;28;20597;-69
2023/07/04 05:16:03;;;;;;;7.45;2.35;;;;;;;23.15;44.29;101101.09;5023450;28;20130;-69
2023/07/04 05:18:29;;;;;;;6.80;2.40;;;;;;;23.16;44.38;101102.75;5009179;28;20041;-69
2023/07/04 05:21:04;;;;;;;6.70;2.03;;;;;;;23.13;44.57;101090.63;5009896;28;20030;-69
2023/07/04 05:23:31;;;;;;;7.50;2.53;;;;;;;23.13;44.70;101090.63;5004772;28;20038;-71
2023/07/04 05:26:15;;;;;;;7.85;2.47;;;;;;;23.13;44.39;101101.25;5020040;28;20033;-70
2023/07/04 05:28:40;;;;;;;8.48;2.85;;;;;;;23.17;44.44;101104.44;5008617;28;20131;-69
2023/07/04 05:31:11;;;;;;;7.85;2.40;;;;;;;23.14;44.85;101110.88;5013086;28;20073;-69
2023/07/04 05:33:37;;;;;;;8.27;2.53;;;;;;;23.17;44.65;101112.41;5008305;28;20040;-68
2023/07/04 05:36:07;;;;;;;6.45;2.60;;;;;;;23.16;45.01;101110.72;5011830;28;20038;-68
2023/07/04 05:38:33;;;;;;;7.20;2.67;;;;;;;23.16;44.62;101105.41;5016227;28;20030;-70
2023/07/04 05:40:58;;;;;;;7.38;2.10;;;;;;;23.14;45.06;101108.22;5021490;28;20033;-68
2023/07/04 05:43:24;;;;;;;7.32;2.20;;;;;;;23.14;45.03;101110.88;5023564;28;20587;-69
2023/07/04 05:45:53;;;;;;;7.90;2.53;;;;;;;23.14;44.76;101110.06;5010922;28;20034;-69
2023/07/04 05:48:19;;;;;;;7.15;2.60;;;;;;;23.14;44.86;101100.25;5017225;28;20486;-71
2023/07/04 05:50:58;;;;;;;8.60;3.00;;;;;;;23.15;44.92;101109.91;5013663;28;20096;-68
2023/07/04 05:53:29;;;;;;;9.60;2.55;;;;;;;23.13;44.97;101108.38;5014270;28;20483;-69
2023/07/04 05:56:11;;;;;;;5.65;2.10;;;;;;;23.16;44.83;101113.38;5010227;28;20040;-74
2023/07/04 05:58:39;;;;;;;6.20;2.40;;;;;;;23.16;44.65;101122.22;5011631;28;20032;-69
2023/07/04 06:01:09;;;;;;;10.20;2.33;;;;;;;23.14;44.53;101104.72;5021436;28;20585;-68
2023/07/04 06:03:35;;;;;;;7.28;2.10;;;;;;;23.16;44.66;101111.59;5015803;28;20524;-69
2023/07/04 06:06:03;;;;;;;7.03;2.38;;;;;;;23.13;44.84;101116.34;5016144;28;20041;-68
2023/07/04 06:08:28;;;;;;;8.57;2.80;;;;;;;23.15;44.87;101112.56;5009370;28;20125;-69
2023/07/04 06:11:01;;;;;;;7.65;2.42;;;;;;;23.15;44.91;101111.72;5012146;28;20708;-70
2023/07/04 06:13:27;;;;;;;5.82;2.00;;;;;;;23.14;44.86;101118.03;5021110;28;20037;-69
2023/07/04 06:15:53;;;;;;;8.07;2.40;;;;;;;23.15;44.99;101117.06;5005680;28;20062;-71
2023/07/04 06:18:18;;;;;;;6.10;2.45;;;;;;;23.13;44.66;101125.19;5013949;28;20040;-69
2023/07/04 06:20:43;;;;;;;8.45;2.38;;;;;;;23.14;44.98;101132.16;5008344;28;20158;-66
2023/07/04 06:23:09;;;;;;;9.38;2.72;;;;;;;23.15;45.23;101130.34;5011230;28;20037;-69
2023/07/04 06:25:34;;;;;;;10.80;3.05;;;;;;;23.16;44.98;101127.53;5010829;28;20044;-71
2023/07/04 06:28:02;;;;;;;10.10;2.75;;;;;;;23.16;44.85;101124.88;5007805;28;20541;-67
2023/07/04 06:30:31;;;;;;;7.95;2.50;;;;;;;23.13;45.11;101127.84;5008847;28;20036;-68
2023/07/04 06:32:57;;;;;;;7.75;2.67;;;;;;;23.17;45.15;101129.19;5006032;28;20121;-67
2023/07/04 06:35:22;;;;;;;7.88;2.40;;;;;;;23.15;45.22;101128.50;5011841;28;20158;-68
2023/07/04 06:37:47;;;;;;;6.43;2.13;;;;;;;23.16;45.38;101137.31;5009691;28;20029;-68
2023/07/04 06:40:13;;;;;;;7.60;2.55;;;;;;;23.14;45.55;101132.16;5008496;28;20044;-71
2023/07/04 06:42:38;;;;;;;7.70;2.28;;;;;;;23.14;45.99;101145.44;5022789;28;20029;-67
2023/07/04 06:45:04;;;;;;;5.53;2.10;;;;;;;23.15;45.77;101138.31;5022715;28;20583;-69
2023/07/04 06:47:29;;;;;;;7.63;2.28;;;;;;;23.14;45.44;101140.13;5007824;28;20037;-69
2023/07/04 06:49:55;;;;;;;6.78;2.45;;;;;;;23.16;45.87;101148.81;5010625;28;20030;-68
2023/07/04 06:52:20;;;;;;;6.95;2.53;;;;;;;23.17;45.52;101158.44;5010506;28;20036;-69
2023/07/04 06:54:48;;;;;;;9.50;3.25;;;;;;;23.13;45.52;101141.13;5021777;28;20033;-69
2023/07/04 06:57:14;;;;;;;7.10;2.53;;;;;;;23.17;45.94;101155.78;5009071;28;20558;-66
2023/07/04 06:59:39;;;;;;;6.88;2.22;;;;;;;23.14;45.51;101153.41;5002532;28;20038;-67
2023/07/04 07:02:05;;;;;;;9.05;2.38;;;;;;;23.17;45.92;101157.59;5019167;28;20049;-68
2023/07/04 07:04:31;;;;;;;7.60;2.30;;;;;;;23.15;46.06;101160.41;5019050;28;20022;-71
2023/07/04 07:06:56;;;;;;;7.25;2.45;;;;;;;23.15;46.04;101171.03;5014282;28;20095;-70
2023/07/04 07:09:22;;;;;;;7.63;2.47;;;;;;;23.15;45.91;101165.72;5009797;28;20034;-72
2023/07/04 07:11:47;;;;;;;9.45;2.80;;;;;;;23.20;46.06;101170.59;5003156;28;20493;-69
2023/07/04 07:14:13;;;;;;;7.28;2.72;;;;;;;23.20;45.91;101159.13;5003391;28;20030;-71
2023/07/04 07:16:38;;;;;;;7.05;2.17;;;;;;;23.21;45.39;101158.13;5017742;28;20045;-70
2023/07/04 07:19:03;;;;;;;11.93;2.78;;;;;;;23.25;45.85;101157.69;5011507;28;20065;-68
2023/07/04 07:21:29;;;;;;;12.25;2.30;;;;;;;23.32;45.92;101157.91;5015473;28;20052;-64
2023/07/04 07:23:54;;;;;;;7.53;2.20;;;;;;;23.36;45.61;101151.31;5008224;28;20500;-64
2023/07/04 07:26:22;;;;;;;6.18;2.15;;;;;;;23.36;45.36;101159.28;5008281;28;20287;-65
2023/07/04 07:28:48;;;;;;;7.57;2.63;;;;;;;23.39;45.21;101166.13;5003407;28;20045;-65
2023/07/04 07:31:19;;;;;;;7.88;2.35;;;;;;;23.42;45.48;101177.31;5007127;28;20030;-65
2023/07/04 07:33:46;;;;;;;8.27;2.33;;;;;;;23.44;45.47;101179.81;5019819;28;20037;-65
2023/07/04 07:36:19;;;;;;;6.57;2.33;;;;;;;23.41;45.26;101180.09;5021100;28;20029;-65
2023/07/04 07:38:44;;;;;;;8.85;2.33;;;;;;;23.47;45.27;101175.00;5016828;28;20370;-67
2023/07/04 07:41:10;;;;;;;9.55;2.50;;;;;;;23.50;44.64;101173.88;5004920;28;20124;-67
2023/07/04 07:43:37;;;;;;;11.45;2.80;;;;;;;23.52;44.79;101172.72;5017628;28;20052;-67
2023/07/04 07:46:06;;;;;;;8.00;2.30;;;;;;;23.51;44.25;101171.06;5016516;28;20033;-66
2023/07/04 07:48:31;;;;;;;8.50;2.33;;;;;;;23.56;44.50;101178.59;5019325;28;20496;-66
2023/07/04 07:50:57;;;;;;;7.47;2.40;;;;;;;23.60;44.18;101181.78;5019074;28;20061;-67
2023/07/04 07:53:22;;;;;;;7.65;2.45;;;;;;;23.60;44.42;101187.94;5011103;28;20751;-67
2023/07/04 07:55:47;;;;;;;7.72;2.25;;;;;;;23.62;44.10;101193.09;5007503;28;20845;-69
2023/07/04 07:58:12;;;;;;;7.55;2.42;;;;;;;23.63;44.13;101186.78;5007252;28;20405;-68
2023/07/04 08:00:38;;;;;;;7.72;2.42;;;;;;;23.62;43.75;101185.13;5008357;28;20069;-69
2023/07/04 08:03:03;;;;;;;10.47;2.27;;;;;;;23.66;43.96;101181.19;5003185;28;20064;-70
2023/07/04 08:05:29;;;;;;;8.93;2.20;;;;;;;23.65;43.99;101184.81;5010426;28;20715;-67
2023/07/04 08:07:55;;;;;;;10.32;2.67;;;;;;;23.63;43.63;101190.28;5000870;28;20041;-67
2023/07/04 08:10:20;;;;;;;6.82;2.10;;;;;;;23.64;43.43;101180.47;5006527;28;20041;-67
2023/07/04 08:12:46;;;;;;;6.88;2.30;;;;;;;23.66;43.78;101189.97;5009475;28;20038;-66
2023/07/04 08:15:11;;;;;;;8.93;2.28;;;;;;;23.68;43.27;101192.50;5010669;28;20029;-66
2023/07/04 08:17:37;;;;;;;8.23;2.70;;;;;;;23.69;43.16;101196.84;5005692;28;20037;-66
2023/07/04 08:20:04;;;;;;;9.73;2.55;;;;;;;23.70;43.28;101203.81;5002468;28;20465;-67
2023/07/04 08:22:30;;;;;;;9.00;2.40;;;;;;;23.69;43.19;101188.84;5010274;28;20038;-67
2023/07/04 08:24:55;;;;;;;7.53;2.50;;;;;;;23.70;43.33;101190.50;5013147;28;20040;-68
2023/07/04 08:27:24;;;;;;;14.85;2.78;;;;;;;23.72;43.31;101201.84;5005645;28;20041;-66
2023/07/04 08:29:49;;;;;;;8.40;2.25;;;;;;;23.73;42.98;101207.03;5009847;28;20034;-65
2023/07/04 08:32:17;;;;;;;11.23;2.40;;;;;;;23.73;43.50;101200.84;5011353;28;20045;-66
2023/07/04 08:34:42;;;;;;;8.00;1.88;;;;;;;23.72;43.34;101199.19;5015055;28;20040;-63
2023/07/04 08:37:07;;;;;;;11.07;2.00;;;;;;;23.73;42.99;101185.72;5017524;28;20037;-66
2023/07/04 08:39:32;;;;;;;9.52;2.30;;;;;;;23.73;43.29;101179.56;5010916;28;20318;-67
2023/07/04 08:42:02;;;;;;;8.82;1.92;;;;;;;23.73;43.05;101171.56;5014537;28;20062;-72
2023/07/04 08:44:40;;;;;;;9.55;2.38;;;;;;;23.71;43.09;101169.06;5005613;28;20084;-64
2023/07/04 08:47:09;;;;;;;7.03;1.98;;;;;;;23.73;43.01;101174.22;5015567;28;20095;-64
2023/07/04 08:49:46;;;;;;;7.43;2.10;;;;;;;23.75;42.58;101179.41;5011989;28;20058;-65
2023/07/04 08:52:25;;;;;;;12.88;2.47;;;;;;;23.75;43.06;101190.91;5012770;28;20133;-68
2023/07/04 08:54:53;;;;;;;8.85;2.08;;;;;;;23.76;42.95;101183.75;5004382;28;20474;-66
2023/07/04 08:57:23;;;;;;;6.47;2.05;;;;;;;23.71;42.67;101184.19;5009483;28;20539;-68
2023/07/04 08:59:56;;;;;;;6.43;1.77;;;;;;;23.75;42.65;101188.25;5008153;28;20041;-66
2023/07/04 09:02:42;;;;;;;8.68;2.08;;;;;;;23.76;42.71;101200.53;5027905;28;20915;-65
2023/07/04 09:05:16;;;;;;;8.10;1.90;;;;;;;23.73;42.84;101200.84;5011905;28;20168;-68
2023/07/04 09:08:00;;;;;;;7.13;2.05;;;;;;;23.69;42.67;101191.50;5018621;28;20126;-66
2023/07/04 09:10:37;;;;;;;7.40;1.95;;;;;;;23.65;42.68;101203.44;5011673;28;20517;-65
2023/07/04 09:13:06;;;;;;;8.98;2.42;;;;;;;23.63;43.04;101198.28;5018841;28;20040;-65
2023/07/04 09:15:36;;;;;;;6.32;2.00;;;;;;;23.66;42.64;101211.25;5007823;28;20058;-64
2023/07/04 09:18:08;;;;;;;9.38;2.35;;;;;;;23.67;42.51;101214.75;5011393;28;20048;-67
2023/07/04 09:20:40;;;;;;;10.07;2.10;;;;;;;23.68;42.98;101208.47;5004058;28;20552;-67
2023/07/04 09:23:13;;;;;;;11.05;2.25;;;;;;;23.67;42.53;101209.44;5007466;28;20139;-67
2023/07/04 09:25:38;;;;;;;8.77;2.50;;;;;;;23.70;42.98;101215.31;5008288;28;20061;-64
2023/07/04 09:28:05;;;;;;;8.13;1.98;;;;;;;23.70;42.70;101207.31;5023055;28;20164;-65
2023/07/04 09:30:31;;;;;;;9.23;2.25;;;;;;;23.71;42.60;101206.31;5023491;28;20543;-68
2023/07/04 09:32:56;;;;;;;8.02;2.08;;;;;;;23.75;42.36;101224.63;5006299;28;20037;-66
2023/07/04 09:35:22;;;;;;;9.02;2.00;;;;;;;23.73;42.70;101227.44;5003792;28;20030;-63
2023/07/04 09:38:00;;;;;;;10.93;2.05;;;;;;;23.70;42.59;101230.41;5003393;28;20046;-64
2023/07/04 09:40:42;;;;;;;9.02;2.00;;;;;;;23.74;42.25;101237.13;5003323;28;20048;-63
2023/07/04 09:43:10;;;;;;;9.35;2.30;;;;;;;23.76;42.48;101228.97;5017248;28;20037;-65
2023/07/04 09:45:35;;;;;;;8.13;2.03;;;;;;;23.77;42.33;101236.00;5018161;28;20037;-66
2023/07/04 09:48:01;;;;;;;6.00;1.75;;;;;;;23.77;42.03;101218.19;5005516;28;20038;-66
2023/07/04 09:50:32;;;;;;;7.15;1.77;;;;;;;23.80;42.28;101233.84;5019608;28;20060;-67
2023/07/04 09:53:20;;;;;;;8.82;2.05;;;;;;;23.83;42.22;101220.28;5003195;28;20087;-69
2023/07/04 09:56:05;;;;;;;10.10;1.92;;;;;;;23.82;42.39;101228.38;5007634;28;20047;-68
2023/07/04 09:58:31;;;;;;;12.68;2.38;;;;;;;23.89;42.23;101235.63;5020503;28;20538;-67
2023/07/04 10:01:08;;;;;;;6.82;2.20;;;;;;;23.85;42.03;101228.09;5010271;28;20120;-68
2023/07/04 10:03:35;;;;;;;7.53;1.77;;;;;;;23.88;41.90;101228.63;5008576;28;20478;-66
2023/07/04 10:06:02;;;;;;;5.80;1.70;;;;;;;23.88;42.36;101238.44;5002962;28;20164;-64
2023/07/04 10:08:27;;;;;;;6.75;2.17;;;;;;;23.88;41.65;101238.44;5013326;28;20095;-64
2023/07/04 10:10:55;;;;;;;9.40;2.20;;;;;;;23.85;42.07;101228.09;5015793;28;20122;-65
2023/07/04 10:13:33;;;;;;;6.97;1.98;;;;;;;23.84;41.62;101232.56;5005467;28;20036;-66
2023/07/04 10:15:59;;;;;;;6.97;2.30;;;;;;;23.88;41.87;101233.13;5004036;28;20074;-69
2023/07/04 10:18:30;;;;;;;7.90;1.83;;;;;;;23.84;42.02;101224.59;5013307;28;20454;-70
2023/07/04 10:20:58;;;;;;;6.65;1.95;;;;;;;23.88;42.45;101231.28;5011679;28;20181;-71
2023/07/04 10:23:26;;;;;;;9.00;2.15;;;;;;;23.89;41.74;101232.13;5015493;28;20064;-68
2023/07/04 10:25:54;;;;;;;8.05;2.17;;;;;;;23.89;42.29;101219.66;5018458;28;20478;-69
2023/07/04 10:28:25;;;;;;;6.38;2.00;;;;;;;23.90;41.99;101231.13;5002775;28;20038;-68
2023/07/04 10:31:06;;;;;;;5.25;1.58;;;;;;;23.90;42.00;101221.31;5006590;28;20026;-66
2023/07/04 10:33:52;;;;;;;5.93;2.17;;;;;;;23.91;41.97;101219.50;5002422;28;20556;-67
2023/07/04 10:36:26;;;;;;;9.75;2.17;;;;;;;23.90;42.34;101223.97;5001929;28;20561;-68
2023/07/04 10:38:56;;;;;;;5.38;1.67;;;;;;;23.93;41.86;101236.16;5002364;28;20041;-64
2023/07/04 10:41:32;;;;;;;7.85;2.20;;;;;;;23.91;41.79;101222.16;5009850;28;20972;-66
2023/07/04 10:44:05;;;;;;;6.20;1.73;;;;;;;23.93;41.69;101224.69;5004023;28;20149;-66
2023/07/04 10:46:44;;;;;;;6.13;1.95;;;;;;;23.93;41.93;101227.34;5004323;28;20073;-66
2023/07/04 10:49:15;;;;;;;6.72;1.70;;;;;;;23.97;42.02;101234.00;5018543;28;20084;-69
2023/07/04 10:51:43;;;;;;;5.28;1.70;;;;;;;23.95;42.12;101234.16;5004541;28;20048;-67
2023/07/04 10:54:11;;;;;;;9.43;1.80;;;;;;;23.97;41.63;101232.16;5020888;28;20041;-68
2023/07/04 10:56:40;;;;;;;7.50;1.60;;;;;;;23.99;41.55;101229.34;5002769;28;20084;-63
2023/07/04 10:59:28;;;;;;;6.15;2.05;;;;;;;23.96;41.71;101232.31;5007470;28;20030;-66
2023/07/04 11:01:58;;;;;;;10.00;2.50;;;;;;;23.97;42.04;101226.03;5013275;28;20462;-67
2023/07/04 11:04:31;;;;;;;6.43;1.65;;;;;;;23.99;41.56;101226.69;5016257;28;20448;-67
2023/07/04 11:07:03;;;;;;;6.07;1.88;;;;;;;23.99;41.74;101234.69;5005399;28;20033;-67
2023/07/04 11:09:40;;;;;;;8.25;1.88;;;;;;;23.98;41.79;101225.88;5001606;28;20478;-64
2023/07/04 11:12:12;;;;;;;7.97;1.63;;;;;;;24.00;41.99;101231.03;5001910;28;20070;-65
2023/07/04 11:14:41;;;;;;;6.53;1.80;;;;;;;23.97;41.20;101216.19;5012151;28;20048;-68
2023/07/04 11:17:12;;;;;;;7.45;2.10;;;;;;;23.97;41.16;101226.84;5020786;28;20055;-66
2023/07/04 11:20:12;;;;;;;5.03;1.40;;;;;;;23.98;41.64;101241.00;5014031;28;20037;-67
2023/07/04 11:22:50;;;;;;;7.20;1.70;;;;;;;24.01;41.82;101235.38;5005960;28;20046;-68
2023/07/04 11:25:41;;;;;;;4.97;1.58;;;;;;;24.01;41.90;101236.22;5016042;28;20087;-66
2023/07/04 11:28:43;;;;;;;7.47;1.92;;;;;;;24.00;41.81;101233.69;5002955;28;20076;-67